< < Back
Terminal Aerodrome Forecast


Current Version              Previous Versions:   1  2  3  4  5  6  7  8  9  

Terminal Aerodrome Forecast

591
FTUS44 KMRX 250529
TAFTYS
TAF
KTYS 250529Z 2506/2606 23003KT P6SM SCT250
     FM251500 24006KT P6SM SCT050 BKN200
     FM252100 25006KT P6SM VCTS BKN050CB
     FM260400 VRB04KT P6SM SCT050 SCT250=

Latest METAR

927
SAUS80 KWBC 251000 RRB
MTRTYS
METAR KTYS 250953Z 21004KT 10SM SCT130 24/23 A3005 RMK AO2 SLP161
T02440228 $


USA.gov is the U.S. government's official web portal to all federal, state and local government web resources and services.